• Join FlightAware (Why Join?)
  • Login
  • US Flag 
07:23AM EDT


 

Airport Tracker/Info


-or-


 

Live Flight TrackerFlight Track Log ✈ VIR6 ✈ 15-Jul-2013 ✈ KMIA - EGLL / LHR

Flight Track Log - Related Links

Times and Time Zones

All times are in EDT time to prevent confusion due to time zone crossing. See the VIR6 flight status page for this flight to view local times or setup timezone preferences in your user account.

Time Position Orientation Groundspeed Altitude Reporting Facility
EDT Latitude Longitude Course Direction KTS MPH feet Rate Location/Type
09:02PM 25.7930 -80.2830 North 10 12  Level FlightAware
09:09PM 25.7920 -80.2840 180° South 11 13  Level FlightAware
09:09PM 25.7930 -80.2850 318° Northwest 20 23  Level FlightAware
09:10PM 25.7930 -80.2870 270° West 24 28  Level FlightAware
09:11PM 25.7950 -80.2890 318° Northwest 26 30  Level FlightAware
09:12PM 25.7960 -80.2910 299° West 16 18  Level FlightAware
09:13PM 25.7970 -80.2930 299° West 26 30  Level FlightAware
09:13PM 25.7970 -80.2940 270° West 21 24  Level FlightAware
09:14PM 25.7980 -80.2950 318° Northwest 15 17  Level FlightAware
09:16PM 25.8155 -80.0179 42° Northeast  Level FlightAware Approximate
09:17PM 25.8966 -79.9048 52° Northeast  Level FlightAware Approximate
09:18PM 25.9728 -79.7880 52° Northeast  Level FlightAware Approximate
09:19PM 26.0514 -79.6733 48° Northeast  Level FlightAware Approximate
09:20PM 26.1267 -79.5566 42° Northeast  Level FlightAware Approximate
09:21PM 25.7990 -80.2980 299° West 14 16  Level FlightAware
09:24PM 25.8332 -79.9935 52° Northeast  Level FlightAware Approximate
09:24PM 25.7990 -80.2990 52° Northeast 15 17  Level FlightAware
09:25PM 25.7990 -80.3000 270° West 60 Level FlightAware
09:26PM 25.8000 -80.3010 318° Northwest 21 24 120 Level FlightAware
09:26PM 25.8010 -80.3010 360° North 18 21 240 Level FlightAware
09:27PM 25.8010 -80.3000 90° East 49 56 240 Level FlightAware
09:28PM 25.8020 -80.2740 88° East 161 185 500 1,680 Climbing FlightAware
09:28PM 25.8040 -80.2480 85° East 168 193 2,000 2,340 Climbing FlightAware
09:29PM 25.8060 -80.2240 85° East 201 231 2,700 1,200 Climbing FlightAware
09:29PM 25.8090 -80.1980 83° East 230 265 3,000 1,080 Climbing FlightAware
09:30PM 25.8130 -80.1610 83° East 255 293 3,700 2,160 Climbing FlightAware
09:30PM 25.8170 -80.1240 83° East 257 296 5,100 2,640 Climbing FlightAware
09:31PM 25.8230 -80.0870 80° East 268 308 6,200 2,280 Climbing FlightAware
09:31PM 25.8410 -80.0520 60° Northeast 275 316 7,300 2,400 Climbing FlightAware
09:32PM 25.8610 -80.0180 57° Northeast 280 322 8,500 2,460 Climbing FlightAware
09:32PM 25.8700 -80.0030 56° Northeast 284 327 9,000 2,220 Climbing FlightAware
09:32PM 25.8900 -79.9710 55° Northeast 289 333 10,000 1,500 Climbing FlightAware
09:33PM 25.9250 -79.9130 56° Northeast 329 379 10,800 1,080 Climbing FlightAware
09:34PM 25.9640 -79.8490 56° Northeast 367 422 11,600 1,260 Climbing FlightAware
09:34PM 25.9960 -79.7960 56° Northeast 385 443 12,400 1,800 Climbing FlightAware
09:35PM 26.0420 -79.7210 56° Northeast 394 453 14,000 2,100 Climbing FlightAware
09:36PM 26.0830 -79.6530 56° Northeast 400 460 15,400 2,040 Climbing FlightAware
09:36PM 26.1250 -79.5860 55° Northeast 409 471 16,700 1,920 Climbing FlightAware
09:37PM 26.1750 -79.5100 54° Northeast 419 482 18,100 1,800 Climbing FlightAware
09:38PM 26.2270 -79.4320 53° Northeast 430 495 19,400 1,680 Climbing FlightAware
09:38PM 26.2790 -79.3620 50° Northeast 439 505 20,500 1,560 Climbing FlightAware
09:39PM 26.3410 -79.3160 34° Northeast 449 517 21,400 1,560 Climbing FlightAware
09:40PM 26.4100 -79.2660 33° Northeast 457 526 22,500 1,680 Climbing FlightAware
09:40PM 26.4910 -79.2100 32° Northeast 465 535 23,800 1,680 Climbing FlightAware
09:41PM 26.5610 -79.1680 28° Northeast 468 539 24,800 2,400 Climbing FlightAware
09:42PM 26.6330 -79.1250 28° Northeast 454 522 26,800 2,280 Climbing FlightAware
09:43PM 26.7380 -79.0600 29° Northeast 459 528 28,500 1,620 Climbing FlightAware
09:43PM 26.8040 -79.0170 30° Northeast 464 534 29,400 1,500 Climbing FlightAware
09:44PM 26.8850 -78.9650 30° Northeast 464 534 30,500 1,380 Climbing FlightAware
09:45PM 26.9670 -78.9130 29° Northeast 477 549 31,400 1,140 Climbing FlightAware
09:45PM 27.0560 -78.8590 28° Northeast 480 552 32,200 1,140 Climbing FlightAware
09:46PM 27.1280 -78.8140 29° Northeast 480 552 33,000 1,380 Climbing FlightAware
09:47PM 27.2180 -78.7660 25° Northeast 481 554 34,100 1,380 Climbing FlightAware
09:47PM 27.3110 -78.7470 10° North 477 549 35,000 660 Climbing FlightAware
09:48PM 27.3950 -78.7290 11° North 477 549 35,000  Level FlightAware
09:49PM 27.4930 -78.7120 North 467 537 35,000  Level FlightAware
09:50PM 27.5770 -78.6990 North 468 539 35,000  Level FlightAware
09:50PM 27.6780 -78.6830 North 472 543 35,000  Level FlightAware
09:51PM 27.7720 -78.6670 North 473 544 35,000  Level FlightAware
09:52PM 27.8810 -78.6490 North 475 547 35,000  Level FlightAware
09:53PM 27.9850 -78.6310 North 470 541 35,000  Level FlightAware
09:53PM 28.0610 -78.6180 North 470 541 35,000  Level FlightAware
09:54PM 28.1400 -78.6050 North 471 542 35,000  Level FlightAware
09:55PM 28.2770 -78.5830 North 471 542 35,000  Level FlightAware
09:56PM 28.3650 -78.5690 North 471 542 35,000  Level FlightAware
09:57PM 28.4310 -78.5590 North 471 542 35,000  Level FlightAware
09:57PM 28.5190 -78.5450 North 471 542 35,000  Level FlightAware
09:58PM 28.5850 -78.5340 North 471 542 35,000  Level FlightAware
09:59PM 28.6730 -78.5200 North 471 542 35,000  Level FlightAware
09:59PM 28.7390 -78.5100 North 471 542 35,000  Level FlightAware
10:01PM 28.9600 -78.4740 North 471 542 35,000  Level FlightAware
10:02PM 29.0270 -78.4630 North 471 542 35,000  Level FlightAware
10:03PM 29.1140 -78.4490 North 471 542 35,000  Level FlightAware
10:03PM 29.1820 -78.4380 North 471 542 35,000  Level FlightAware
10:04PM 29.5239 -78.3728 North 479 551 35,000  Level Miami Center
10:06PM 29.6719 -78.3419 10° North 479 551 35,000  Level Jacksonville Center
10:07PM 29.8067 -78.3211 North 489 563 35,000  Level Jacksonville Center
10:08PM 29.9439 -78.3003 North 483 556 35,000  Level Jacksonville Center
10:09PM 30.0700 -78.2728 11° North 483 556 35,000  Level Jacksonville Center
10:10PM 30.2197 -78.2511 North 483 556 35,000  Level Jacksonville Center
10:11PM 30.3503 -78.2256 10° North 477 549 35,000  Level Jacksonville Center
10:12PM 30.4767 -78.2025 North 472 543 35,000  Level Jacksonville Center
10:13PM 30.6156 -78.1811 North 480 552 35,000  Level Jacksonville Center
10:14PM 30.7464 -78.1603 North 478 550 35,000  Level Jacksonville Center
10:15PM 30.8792 -78.1367 North 478 550 35,000  Level Jacksonville Center
10:16PM 31.0097 -78.1131 North 484 557 35,000  Level Jacksonville Center
10:17PM 31.1256 -78.0853 12° North 479 551 35,000  Level Jacksonville Center
10:18PM 31.2581 -78.0592 10° North 479 551 35,000  Level Jacksonville Center
10:19PM 31.3892 -78.0428 North 479 551 35,000  Level Jacksonville Center
10:20PM 31.5236 -78.0136 10° North 479 551 35,000  Level Jacksonville Center
10:21PM 31.6542 -77.9897 North 479 551 35,000  Level Jacksonville Center
10:22PM 31.7869 -77.9656 North 479 551 35,000  Level Jacksonville Center
10:23PM 31.9153 -77.9442 North 479 551 35,000  Level Jacksonville Center
10:24PM 32.0481 -77.9222 North 479 551 35,000  Level Jacksonville Center
10:25PM 32.1808 -77.8978 North 479 551 35,000  Level Jacksonville Center
10:26PM 32.3092 -77.8711 10° North 479 551 35,000  Level Jacksonville Center
10:27PM 32.4397 -77.8492 North 474 545 35,000  Level Jacksonville Center
10:28PM 32.5722 -77.8247 North 474 545 35,000  Level Jacksonville Center
10:29PM 32.7008 -77.8050 North 474 545 35,000  Level Jacksonville Center
10:30PM 32.9508 -77.7567 North 477 549 35,000  Level Washington Center
10:31PM 33.0825 -77.7328 North 477 549 35,000  Level Washington Center
10:32PM 33.2144 -77.7086 North 477 549 35,000  Level Washington Center
10:33PM 33.3419 -77.6847 North 477 549 35,000  Level Washington Center
10:34PM 33.4761 -77.6606 North 477 549 35,000  Level Washington Center
10:35PM 33.6058 -77.6239 13° North 472 543 35,000  Level Washington Center
10:36PM 33.7300 -77.5694 20° North 472 543 35,000  Level Washington Center
10:37PM 33.8561 -77.5150 20° North 472 543 35,000  Level Washington Center
10:38PM 33.9778 -77.4578 21° North 472 543 35,000  Level Washington Center
10:39PM 34.1039 -77.4028 20° North 472 543 35,000  Level Washington Center
10:40PM 34.2278 -77.3478 20° North 472 543 35,000  Level Washington Center
10:41PM 34.3539 -77.2925 20° North 472 543 35,000  Level Washington Center
10:42PM 34.4756 -77.2372 21° North 472 543 35,000  Level Washington Center
10:43PM 34.5972 -77.1842 20° North 472 543 35,000  Level Washington Center
10:44PM 34.7231 -77.1311 19° North 472 543 35,000  Level Washington Center
10:45PM 34.8450 -77.0750 21° North 472 543 35,000  Level Washington Center
10:46PM 34.9667 -77.0217 20° North 467 537 35,000  Level Washington Center
10:47PM 35.0883 -76.9653 21° North 467 537 35,000  Level Washington Center
10:48PM 35.2097 -76.9114 20° North 467 537 35,000  Level Washington Center
10:55PM 35.9840 -76.5590 20° North 35,000  Level FlightAware
10:55PM 36.0830 -76.5120 21° North 465 535 35,000  Level FlightAware
10:56PM 36.1900 -76.4630 20° North 466 536 35,000  Level FlightAware
10:57PM 36.2760 -76.4240 20° North 474 545 35,000  Level FlightAware
10:58PM 36.3500 -76.3890 21° North 467 537 35,000  Level FlightAware
10:58PM 36.4380 -76.3480 21° North 468 539 35,000  Level FlightAware
10:59PM 36.5220 -76.3090 20° North 468 539 35,000  Level FlightAware
11:00PM 36.6110 -76.2670 21° North 475 547 35,000  Level FlightAware
11:00PM 36.7040 -76.2240 20° North 475 547 35,000  Level FlightAware
11:01PM 36.8040 -76.1770 21° North 468 539 35,000  Level FlightAware
11:02PM 36.9101 -76.1268 21° North 475 547 35,000  Level FlightAware ADS-B
11:03PM 36.9758 -76.0951 21° North 474 545 35,000  Level FlightAware ADS-B
11:03PM 37.0097 -76.0757 25° Northeast 474 545 35,000  Level FlightAware ADS-B
11:03PM 37.0444 -76.0521 28° Northeast 473 544 35,000  Level FlightAware ADS-B
11:04PM 37.1007 -76.0089 31° Northeast 474 545 35,000 480 Level FlightAware ADS-B
11:04PM 37.1585 -75.9631 32° Northeast 475 547 35,500 1,140 Climbing FlightAware ADS-B
11:05PM 37.2178 -75.9159 32° Northeast 473 544 36,200 1,200 Climbing FlightAware ADS-B
11:05PM 37.2823 -75.8644 32° Northeast 472 543 36,900 660 Climbing FlightAware ADS-B
11:06PM 37.3410 -75.8170 33° Northeast 464 534 37,000 60 Climbing FlightAware
11:06PM 37.3798 -75.7866 32° Northeast 472 543 37,000  Level FlightAware ADS-B
11:07PM 37.4377 -75.7397 33° Northeast 471 542 37,000  Level FlightAware ADS-B
11:07PM 37.4933 -75.6957 32° Northeast 469 540 37,000  Level FlightAware ADS-B
11:08PM 37.5492 -75.6517 32° Northeast 469 540 37,000  Level FlightAware ADS-B
11:08PM 37.6099 -75.6032 32° Northeast 469 540 37,000  Level FlightAware ADS-B
11:09PM 37.6657 -75.5577 33° Northeast 469 540 37,000  Level FlightAware ADS-B
11:09PM 37.7206 -75.5135 32° Northeast 469 540 37,000  Level FlightAware ADS-B
11:10PM 37.7950 -75.4530 33° Northeast 462 532 37,000  Level FlightAware
11:11PM 37.8657 -75.3968 32° Northeast 469 540 37,000  Level FlightAware ADS-B
11:11PM 37.9213 -75.3510 33° Northeast 470 541 37,000  Level FlightAware ADS-B
11:12PM 37.9782 -75.3050 33° Northeast 469 540 37,000  Level FlightAware ADS-B
11:12PM 38.0334 -75.2603 33° Northeast 470 541 37,000  Level FlightAware ADS-B
11:13PM 38.0899 -75.2140 33° Northeast 471 542 37,000  Level FlightAware ADS-B
11:14PM 38.1927 -75.1300 33° Northeast 472 543 37,000  Level FlightAware ADS-B
11:14PM 38.2519 -75.0819 33° Northeast 472 543 37,000  Level FlightAware ADS-B
11:15PM 38.3093 -75.0352 33° Northeast 471 542 37,000  Level FlightAware ADS-B
11:15PM 38.3691 -74.9855 33° Northeast 470 541 37,000  Level FlightAware ADS-B
11:16PM 38.4337 -74.9330 32° Northeast 469 540 37,000  Level FlightAware ADS-B
11:16PM 38.4884 -74.8879 33° Northeast 470 541 37,000  Level FlightAware ADS-B
11:16PM 38.4983 -74.8793 34° Northeast 469 540 37,000  Level FlightAware ADS-B
11:17PM 38.5195 -74.8644 29° Northeast 471 542 37,000  Level FlightAware ADS-B
11:17PM 38.5788 -74.8288 25° Northeast 470 541 37,000  Level FlightAware ADS-B
11:18PM 38.6392 -74.7943 24° Northeast 470 541 37,000  Level FlightAware ADS-B
11:18PM 38.6988 -74.7603 24° Northeast 469 540 37,000  Level FlightAware ADS-B
11:19PM 38.7584 -74.7252 25° Northeast 468 539 37,000  Level FlightAware ADS-B
11:19PM 38.8237 -74.6878 24° Northeast 468 539 37,000  Level FlightAware ADS-B
11:20PM 38.8830 -74.6541 24° Northeast 467 537 37,000  Level FlightAware ADS-B
11:20PM 38.9452 -74.6201 23° Northeast 469 540 37,000  Level FlightAware ADS-B
11:21PM 38.9964 -74.5921 23° Northeast 471 542 37,000  Level FlightAware ADS-B
11:21PM 39.0356 -74.5682 25° Northeast 471 542 37,000  Level FlightAware ADS-B
11:21PM 39.0529 -74.5563 28° Northeast 471 542 37,000  Level FlightAware ADS-B
11:22PM 39.1095 -74.5108 32° Northeast 471 542 37,000  Level FlightAware ADS-B
11:22PM 39.1785 -74.4561 32° Northeast 472 543 37,000  Level FlightAware ADS-B
11:23PM 39.2352 -74.4094 33° Northeast 473 544 37,000  Level FlightAware ADS-B
11:23PM 39.2900 -74.3620 34° Northeast 472 543 37,000  Level FlightAware ADS-B
11:24PM 39.3446 -74.3114 36° Northeast 471 542 37,000  Level FlightAware ADS-B
11:24PM 39.3981 -74.2628 35° Northeast 471 542 37,000  Level FlightAware ADS-B
11:25PM 39.4527 -74.2127 35° Northeast 470 541 37,000  Level FlightAware ADS-B
11:25PM 39.5091 -74.1627 34° Northeast 471 542 37,000  Level FlightAware ADS-B
11:26PM 39.5635 -74.1126 35° Northeast 472 543 37,000  Level FlightAware ADS-B
11:26PM 39.6185 -74.0638 34° Northeast 474 545 37,000  Level FlightAware ADS-B
11:27PM 39.6749 -74.0116 35° Northeast 474 545 37,000  Level FlightAware ADS-B
11:27PM 39.7304 -73.9625 34° Northeast 474 545 37,000  Level FlightAware ADS-B
11:28PM 39.7894 -73.9083 35° Northeast 474 545 37,000  Level FlightAware ADS-B
11:28PM 39.8443 -73.8574 35° Northeast 474 545 37,000  Level FlightAware ADS-B
11:29PM 39.8989 -73.8081 35° Northeast 474 545 37,000  Level FlightAware ADS-B
11:29PM 39.9537 -73.7572 35° Northeast 474 545 37,000  Level FlightAware ADS-B
11:30PM 40.0085 -73.7060 36° Northeast 473 544 37,000  Level FlightAware ADS-B
11:30PM 40.0639 -73.6548 35° Northeast 473 544 37,000  Level FlightAware ADS-B
11:31PM 40.1201 -73.6037 35° Northeast 473 544 37,000  Level FlightAware ADS-B
11:31PM 40.1425 -73.5817 37° Northeast 473 544 37,000  Level FlightAware ADS-B
11:32PM 40.1952 -73.5292 37° Northeast 472 543 37,000  Level FlightAware ADS-B
11:32PM 40.2473 -73.4743 39° Northeast 472 543 37,000  Level FlightAware ADS-B
11:33PM 40.2990 -73.4216 38° Northeast 472 543 37,000  Level FlightAware ADS-B
11:33PM 40.3515 -73.3692 37° Northeast 472 543 37,000  Level FlightAware ADS-B
11:34PM 40.4043 -73.3148 38° Northeast 472 543 37,000  Level FlightAware ADS-B
11:34PM 40.4565 -73.2621 38° Northeast 473 544 37,000  Level FlightAware ADS-B
11:35PM 40.5093 -73.2093 37° Northeast 474 545 37,000  Level FlightAware ADS-B
11:35PM 40.5613 -73.1562 38° Northeast 474 545 37,000  Level FlightAware ADS-B
11:36PM 40.6135 -73.1030 38° Northeast 474 545 37,000  Level FlightAware ADS-B
11:36PM 40.6661 -73.0479 38° Northeast 474 545 37,000  Level FlightAware ADS-B
11:37PM 40.7202 -72.9926 38° Northeast 475 547 37,000  Level FlightAware ADS-B
11:37PM 40.7725 -72.9390 38° Northeast 475 547 37,000  Level FlightAware ADS-B
11:38PM 40.8247 -72.8855 38° Northeast 475 547 37,000  Level FlightAware ADS-B
11:38PM 40.8767 -72.8319 38° Northeast 474 545 37,000  Level FlightAware ADS-B
11:39PM 40.9302 -72.7762 38° Northeast 474 545 37,000  Level FlightAware ADS-B
11:39PM 40.9831 -72.7209 38° Northeast 475 547 37,000  Level FlightAware ADS-B
11:40PM 41.0352 -72.6669 38° Northeast 475 547 37,000  Level FlightAware ADS-B
11:41PM 41.1200 -72.5786 38° Northeast 476 548 37,000  Level FlightAware ADS-B
11:41PM 41.1920 -72.5020 39° Northeast 477 549 37,000  Level FlightAware
11:42PM 41.2640 -72.4260 38° Northeast 477 549 37,000  Level FlightAware
11:43PM 41.3660 -72.3180 38° Northeast 478 550 37,000  Level FlightAware
11:44PM 41.4378 -72.2432 38° Northeast 478 550 37,000  Level FlightAware ADS-B
11:45PM 41.5330 -72.1420 38° Northeast 478 550 37,000  Level FlightAware
11:45PM 41.6150 -72.0550 38° Northeast 478 550 37,000  Level FlightAware
11:46PM 41.7120 -71.9520 38° Northeast 474 545 37,000  Level FlightAware
11:47PM 41.7930 -71.8640 39° Northeast 476 548 37,000  Level FlightAware
11:48PM 41.8720 -71.7800 38° Northeast 476 548 37,000  Level FlightAware
11:48PM 41.9420 -71.7020 40° Northeast 477 549 37,000  Level FlightAware
11:49PM 42.0200 -71.6190 38° Northeast 478 550 37,000  Level FlightAware
11:50PM 42.0810 -71.5530 39° Northeast 478 550 37,000  Level FlightAware
11:50PM 42.1500 -71.4770 39° Northeast 479 551 37,000  Level FlightAware
11:51PM 42.2300 -71.3890 39° Northeast 480 552 37,000  Level FlightAware
11:52PM 42.2910 -71.3220 39° Northeast 480 552 37,000  Level FlightAware
11:52PM 42.3590 -71.2490 38° Northeast 482 555 37,000  Level FlightAware
11:53PM 42.4300 -71.1700 39° Northeast 482 555 37,000  Level FlightAware
11:54PM 42.5000 -71.0930 39° Northeast 482 555 37,000  Level FlightAware
11:55PM 42.5760 -71.0090 39° Northeast 481 554 37,000  Level FlightAware
11:55PM 42.6500 -70.9260 40° Northeast 481 554 37,000  Level FlightAware
11:56PM 42.7200 -70.8480 39° Northeast 482 555 37,000  Level FlightAware
11:57PM 42.7970 -70.7620 39° Northeast 483 556 37,000  Level FlightAware
11:57PM 42.8590 -70.6910 40° Northeast 484 557 37,000  Level FlightAware
11:58PM 42.9290 -70.6150 38° Northeast 484 557 37,000  Level FlightAware
11:59PM 43.0040 -70.5300 40° Northeast 484 557 37,000  Level FlightAware
11:59PM 43.0680 -70.4560 40° Northeast 485 558 37,000  Level FlightAware
12:00AM 43.1390 -70.3770 39° Northeast 485 558 37,000  Level FlightAware
12:01AM 43.2140 -70.2910 40° Northeast 486 559 37,000  Level FlightAware
12:01AM 43.2770 -70.2190 40° Northeast 487 560 37,000  Level FlightAware
12:02AM 43.3410 -70.1440 40° Northeast 487 560 37,000  Level FlightAware
12:03AM 43.4290 -70.0440 40° Northeast 492 566 37,000  Level FlightAware
12:03AM 43.4970 -69.9650 40° Northeast 491 565 37,000  Level FlightAware
12:04AM 43.5740 -69.8750 40° Northeast 492 566 37,000  Level FlightAware
12:05AM 43.6450 -69.7940 40° Northeast 493 567 37,000  Level FlightAware
12:05AM 43.7220 -69.7040 40° Northeast 493 567 37,000  Level FlightAware
12:06AM 43.7810 -69.6350 40° Northeast 493 567 37,000  Level FlightAware
12:07AM 43.8550 -69.5470 41° Northeast 494 568 37,000  Level FlightAware
12:07AM 43.9160 -69.4750 40° Northeast 495 570 37,000  Level FlightAware
12:08AM 43.9870 -69.3930 40° Northeast 497 572 37,000  Level FlightAware
12:09AM 44.0640 -69.3000 41° Northeast 491 565 37,000  Level FlightAware
12:09AM 44.1340 -69.2170 40° Northeast 490 564 37,000  Level FlightAware
12:10AM 44.1950 -69.1440 41° Northeast 491 565 37,000  Level FlightAware
12:11AM 44.2890 -69.0330 40° Northeast 492 566 37,000  Level FlightAware
12:12AM 44.3630 -68.9450 40° Northeast 500 575 37,000  Level FlightAware
12:12AM 44.4430 -68.8470 41° Northeast 499 574 37,000  Level FlightAware
12:13AM 44.5140 -68.7610 41° Northeast 499 574 37,000  Level FlightAware
12:14AM 44.5870 -68.6720 41° Northeast 501 577 37,000  Level FlightAware
12:14AM 44.6610 -68.5820 41° Northeast 501 577 37,000  Level FlightAware
12:15AM 44.6960 -68.5390 41° Northeast 495 570 37,000  Level FlightAware
12:16AM 44.8190 -68.3890 41° Northeast 502 578 37,000  Level FlightAware
12:17AM 44.9290 -68.2500 42° Northeast 504 580 37,000  Level FlightAware
12:18AM 44.9900 -68.1490 49° Northeast 509 586 37,000  Level FlightAware
12:18AM 45.0350 -68.0480 58° Northeast 512 589 37,000  Level FlightAware
12:19AM 45.0850 -67.9340 58° Northeast 512 589 37,000  Level FlightAware
12:20AM 45.1400 -67.8090 58° Northeast 513 590 37,000  Level FlightAware
12:20AM 45.1850 -67.7060 58° Northeast 513 590 37,000  Level FlightAware
12:21AM 45.2320 -67.5970 58° Northeast 513 590 37,000  Level FlightAware
12:22AM 45.2830 -67.4830 58° Northeast 514 592 37,000  Level FlightAware
12:22AM 45.3400 -67.3550 58° Northeast 514 592 37,000  Level FlightAware
12:23AM 45.3930 -67.2350 58° Northeast 516 594 37,000  Level FlightAware
12:24AM 45.4490 -67.1080 58° Northeast 517 595 37,000  Level FlightAware
12:24AM 45.5000 -66.9920 58° Northeast 516 594 37,000  Level FlightAware
12:25AM 45.5440 -66.8910 58° Northeast 517 595 37,000  Level FlightAware
12:26AM 45.6010 -66.7580 58° Northeast 518 596 37,000  Level FlightAware
12:26AM 45.6450 -66.6560 58° Northeast 518 596 37,000  Level FlightAware
12:27AM 45.7020 -66.5240 58° Northeast 519 597 37,000  Level FlightAware
12:28AM 45.7530 -66.4040 59° Northeast 521 600 37,000  Level FlightAware
12:29AM 45.8090 -66.2750 58° Northeast 516 594 37,000  Level FlightAware
12:29AM 45.8590 -66.1570 59° Northeast 515 593 37,000  Level FlightAware
12:30AM 45.9080 -66.0390 59° Northeast 514 592 37,000  Level FlightAware
12:31AM 45.9640 -65.9070 59° Northeast 513 590 37,000  Level FlightAware
12:31AM 46.0130 -65.7920 58° Northeast 512 589 37,000  Level FlightAware
12:32AM 46.0870 -65.6120 59° Northeast 518 596 37,000  Level FlightAware
12:33AM 46.1300 -65.5090 59° Northeast 518 596 37,000  Level FlightAware
12:34AM 46.1840 -65.3800 59° Northeast 518 596 37,000  Level FlightAware
12:34AM 46.2230 -65.2870 59° Northeast 518 596 37,000  Level FlightAware
12:35AM 46.2610 -65.1930 60° Northeast 518 596 37,000  Level FlightAware
12:36AM 46.3120 -65.0720 59° Northeast 518 596 37,000  Level FlightAware
12:36AM 46.3500 -64.9810 59° Northeast 518 596 37,000  Level FlightAware
12:37AM 46.4000 -64.8590 59° Northeast 518 596 37,000  Level FlightAware
12:38AM 46.4390 -64.7660 59° Northeast 518 596 37,000  Level FlightAware
12:39AM 46.4890 -64.6440 59° Northeast 518 596 37,000  Level FlightAware
12:39AM 46.5270 -64.5530 59° Northeast 518 596 37,000  Level FlightAware
12:40AM 46.5770 -64.4310 59° Northeast 518 596 37,000  Level FlightAware
12:41AM 46.6150 -64.3390 59° Northeast 518 596 37,000  Level FlightAware
12:41AM 46.6650 -64.2170 59° Northeast 518 596 37,000  Level FlightAware
12:42AM 46.7030 -64.1260 59° Northeast 518 596 37,000  Level FlightAware
12:43AM 46.7530 -64.0030 59° Northeast 518 596 37,000  Level FlightAware
12:43AM 46.8833 -63.5833 59° Northeast 520 598 37,000  Level Moncton Center
12:44AM 46.9500 -63.4167 60° Northeast 520 598 37,000  Level Moncton Center
12:45AM 47.0167 -63.2167 64° Northeast 530 610 37,000  Level Moncton Center
12:46AM 47.0833 -63.0667 57° Northeast 530 610 37,000  Level Gander Center
12:52AM 47.5320 -61.8930 57° Northeast 533 613 37,000  Level FlightAware
12:53AM 47.5740 -61.7810 61° Northeast 533 613 37,000  Level FlightAware
12:54AM 47.6100 -61.6830 61° Northeast 533 613 37,000  Level FlightAware
12:54AM 47.6770 -61.4870 63° Northeast 534 615 37,000  Level FlightAware
12:55AM 47.7250 -61.3510 62° Northeast 535 616 37,000  Level FlightAware
12:56AM 47.7760 -61.2080 62° Northeast 536 617 37,000  Level FlightAware
12:57AM 47.8240 -61.0750 62° Northeast 536 617 37,000  Level FlightAware
12:57AM 47.8590 -60.9760 62° Northeast 536 617 37,000  Level FlightAware
12:58AM 47.9070 -60.8420 62° Northeast 536 617 37,000  Level FlightAware
12:59AM 47.9660 -60.6760 62° Northeast 536 617 37,000  Level FlightAware
01:00AM 48.0020 -60.5760 62° Northeast 536 617 37,000  Level FlightAware
01:01AM 48.0500 -60.4390 62° Northeast 536 617 37,000  Level FlightAware
01:01AM 48.0860 -60.3390 62° Northeast 536 617 37,000  Level FlightAware
01:02AM 48.1450 -60.1720 62° Northeast 536 617 37,000  Level FlightAware
01:03AM 48.1830 -60.0660 62° Northeast 536 617 37,000  Level FlightAware
01:04AM 48.3080 -59.6560 65° Northeast 551 634 37,000  Level FlightAware
01:04AM 48.3560 -59.5130 63° Northeast 551 634 37,000  Level FlightAware
01:06AM 48.4690 -59.1650 64° Northeast 552 635 37,000  Level FlightAware
01:07AM 48.5110 -59.0340 64° Northeast 551 634 37,000  Level FlightAware
01:07AM 48.5450 -58.9280 64° Northeast 551 634 37,000  Level FlightAware
01:08AM 48.5800 -58.8220 63° Northeast 551 634 37,000  Level FlightAware
01:08AM 48.6140 -58.7160 64° Northeast 551 634 37,000  Level FlightAware
01:09AM 48.6980 -58.4530 64° Northeast 556 640 37,000  Level FlightAware
01:10AM 48.7560 -58.2690 64° Northeast 556 640 37,000  Level FlightAware
01:11AM 48.7840 -58.1750 66° East 556 640 37,000  Level FlightAware
01:12AM 48.8540 -57.9560 64° Northeast 559 643 37,000  Level FlightAware
01:12AM 48.8930 -57.8330 64° Northeast 559 643 37,000  Level FlightAware
01:13AM 48.9370 -57.6950 64° Northeast 558 642 37,000  Level FlightAware
01:14AM 48.9880 -57.5320 64° Northeast 557 641 37,000  Level FlightAware
01:14AM 49.0210 -57.4260 65° Northeast 556 640 37,000  Level FlightAware
01:15AM 49.0700 -57.2670 65° Northeast 556 640 37,000  Level FlightAware
01:16AM 49.1130 -57.1250 65° Northeast 558 642 37,000  Level FlightAware
01:16AM 49.1620 -56.9670 65° Northeast 561 646 37,000  Level FlightAware
01:17AM 49.2010 -56.8380 65° Northeast 562 647 37,000  Level FlightAware
01:18AM 49.2550 -56.6580 65° Northeast 561 646 37,000  Level FlightAware
01:18AM 49.2990 -56.5140 65° Northeast 559 643 37,000  Level FlightAware
01:19AM 49.3360 -56.3910 65° Northeast 560 644 37,000  Level FlightAware
01:20AM 49.3790 -56.2430 66° East 562 647 37,000  Level FlightAware
01:20AM 49.4270 -56.0800 66° East 562 647 37,000  Level FlightAware
01:21AM 49.4810 -55.8970 66° East 565 650 37,000  Level FlightAware
01:22AM 49.5240 -55.7510 66° East 562 647 37,000  Level FlightAware
01:22AM 49.5490 -55.6640 66° East 557 641 37,000  Level FlightAware
01:23AM 49.5950 -55.5060 66° East 552 635 37,000 60 Level FlightAware
01:24AM 49.6370 -55.3550 67° East 554 638 37,100 720 Climbing FlightAware
01:25AM 49.6850 -55.1920 65° Northeast 553 636 38,100 1,320 Climbing FlightAware
01:25AM 49.7250 -55.0480 67° East 550 633 39,000 660 Climbing FlightAware
01:26AM 49.7650 -54.9040 67° East 554 638 39,000  Level FlightAware
01:26AM 49.8000 -54.7800 66° East 555 639 39,000  Level FlightAware
01:27AM 49.8460 -54.6130 67° East 553 636 39,000  Level FlightAware
01:28AM 49.8860 -54.4670 67° East 552 635 39,000  Level FlightAware
01:28AM 49.9220 -54.3390 66° East 552 635 39,000  Level FlightAware
01:29AM 49.9670 -54.1750 67° East 555 639 39,000  Level FlightAware
01:30AM 50.0060 -54.0280 68° East 555 639 39,000  Level FlightAware
01:31AM 50.0460 -53.8810 67° East 555 639 39,000  Level FlightAware
01:31AM 50.0900 -53.7150 67° East 551 634 39,000  Level FlightAware
01:32AM 50.1220 -53.5950 67° East 550 633 39,000  Level FlightAware
01:33AM 50.1720 -53.4050 68° East 549 632 39,000  Level FlightAware
01:33AM 50.2100 -53.2580 68° East 548 631 39,000  Level FlightAware
01:34AM 50.2530 -53.0970 67° East 550 633 39,000  Level FlightAware
01:35AM 50.2860 -52.9680 68° East 551 634 39,000  Level FlightAware
01:36AM 50.3420 -52.7460 68° East 550 633 39,000  Level FlightAware
01:36AM 50.3810 -52.5890 69° East 551 634 39,000  Level FlightAware
01:37AM 50.4090 -52.4750 69° East 551 634 39,000  Level FlightAware
01:38AM 50.4590 -52.2840 68° East 550 633 39,000  Level FlightAware
01:38AM 50.4970 -52.1310 69° East 548 631 39,000  Level FlightAware
01:39AM 50.5290 -52.0010 69° East 548 631 39,000  Level FlightAware
01:40AM 50.5560 -51.8870 70° East 548 631 39,000  Level FlightAware
01:40AM 50.5840 -51.7720 69° East 548 631 39,000  Level FlightAware
01:41AM 50.6410 -51.5430 68° East 547 629 39,000  Level FlightAware
01:42AM 50.6900 -51.3410 69° East 547 629 39,000  Level FlightAware
01:43AM 50.7270 -51.1880 69° East 547 629 39,000  Level FlightAware
01:44AM 50.7550 -51.0740 69° East 547 629 39,000  Level FlightAware
01:44AM 50.7920 -50.9220 69° East 547 629 39,000  Level FlightAware
01:45AM 50.8190 -50.8070 70° East 547 629 39,000  Level FlightAware
01:46AM 50.8570 -50.6510 69° East 547 629 39,000  Level FlightAware
01:46AM 50.8850 -50.5370 69° East 547 629 39,000  Level FlightAware
01:47AM 50.9130 -50.4220 69° East 547 629 39,000  Level FlightAware
01:48AM 50.9500 -50.2660 69° East 547 629 39,000  Level FlightAware
01:48AM 50.9780 -50.1510 69° East 547 629 39,000  Level FlightAware
01:49AM 51.0060 -50.0360 69° East 547 629 39,000  Level FlightAware
01:50AM 51.0430 -49.8830 69° East 547 629 39,000  Level FlightAware
01:50AM 51.0710 -49.7680 69° East 547 629 39,000  Level FlightAware
01:51AM 51.0980 -49.6530 69° East 547 629 39,000  Level FlightAware
02:00AM 51.5167 -47.8945 68° East  Level FlightAware Approximate
02:01AM 51.5640 -47.6863 70° East  Level FlightAware Approximate
02:02AM 51.6110 -47.4777 70° East  Level FlightAware Approximate
02:03AM 51.6576 -47.2687 70° East  Level FlightAware Approximate
02:04AM 51.7038 -47.0592 70° East  Level FlightAware Approximate
02:05AM 51.7496 -46.8494 70° East  Level FlightAware Approximate
02:06AM 51.7951 -46.6390 71° East  Level FlightAware Approximate
02:07AM 51.8402 -46.4283 71° East  Level FlightAware Approximate
02:08AM 51.8849 -46.2172 71° East  Level FlightAware Approximate
02:09AM 51.9293 -46.0056 71° East  Level FlightAware Approximate
02:10AM 51.9732 -45.7936 71° East  Level FlightAware Approximate
02:11AM 52.0168 -45.5812 71° East  Level FlightAware Approximate
02:12AM 52.0600 -45.3684 72° East  Level FlightAware Approximate
02:13AM 52.1028 -45.1552 72° East  Level FlightAware Approximate
02:14AM 52.1452 -44.9416 72° East  Level FlightAware Approximate
02:15AM 52.1873 -44.7275 72° East  Level FlightAware Approximate
02:16AM 52.2289 -44.5131 72° East  Level FlightAware Approximate
02:17AM 52.2702 -44.2982 72° East  Level FlightAware Approximate
02:18AM 52.3111 -44.0830 73° East  Level FlightAware Approximate
02:19AM 52.3515 -43.8674 73° East  Level FlightAware Approximate
02:20AM 52.3916 -43.6513 73° East  Level FlightAware Approximate
02:21AM 52.4313 -43.4349 73° East  Level FlightAware Approximate
02:22AM 52.4706 -43.2181 73° East  Level FlightAware Approximate
02:23AM 52.5095 -43.0009 74° East  Level FlightAware Approximate
02:24AM 52.5480 -42.7833 74° East  Level FlightAware Approximate
02:25AM 52.5861 -42.5654 74° East  Level FlightAware Approximate
02:26AM 52.6238 -42.3470 74° East  Level FlightAware Approximate
02:27AM 52.6611 -42.1283 74° East  Level FlightAware Approximate
02:28AM 52.6980 -41.9092 74° East  Level FlightAware Approximate
02:29AM 52.7345 -41.6898 75° East  Level FlightAware Approximate
02:30AM 52.7706 -41.4700 75° East  Level FlightAware Approximate
02:31AM 52.8063 -41.2498 75° East  Level FlightAware Approximate
02:32AM 52.8415 -41.0293 75° East  Level FlightAware Approximate
02:33AM 52.8764 -40.8084 75° East  Level FlightAware Approximate
02:34AM 52.9108 -40.5872 75° East  Level FlightAware Approximate
02:35AM 52.9449 -40.3656 76° East  Level FlightAware Approximate
02:36AM 52.9785 -40.1436 76° East  Level FlightAware Approximate
02:37AM 53.0114 -39.9211 76° East  Level FlightAware Approximate
02:38AM 53.0433 -39.6981 77° East  Level FlightAware Approximate
02:39AM 53.0748 -39.4748 77° East  Level FlightAware Approximate
02:40AM 53.1059 -39.2512 77° East  Level FlightAware Approximate
02:41AM 53.1366 -39.0272 77° East  Level FlightAware Approximate
02:42AM 53.1669 -38.8030 77° East  Level FlightAware Approximate
02:43AM 53.1967 -38.5784 77° East  Level FlightAware Approximate
02:44AM 53.2261 -38.3535 78° East  Level FlightAware Approximate
02:45AM 53.2551 -38.1283 78° East  Level FlightAware Approximate
02:46AM 53.2836 -37.9028 78° East  Level FlightAware Approximate
02:47AM 53.3117 -37.6770 78° East  Level FlightAware Approximate
02:48AM 53.3394 -37.4509 78° East  Level FlightAware Approximate
02:49AM 53.3667 -37.2245 78° East  Level FlightAware Approximate
02:50AM 53.3936 -36.9979 79° East  Level FlightAware Approximate
02:51AM 53.4200 -36.7709 79° East  Level FlightAware Approximate
02:52AM 53.4459 -36.5437 79° East  Level FlightAware Approximate
02:53AM 53.4715 -36.3162 79° East  Level FlightAware Approximate
02:54AM 53.4966 -36.0884 79° East  Level FlightAware Approximate
02:55AM 53.5213 -35.8603 80° East  Level FlightAware Approximate
02:56AM 53.5456 -35.6320 80° East  Level FlightAware Approximate
02:57AM 53.5694 -35.4034 80° East  Level FlightAware Approximate
02:58AM 53.5928 -35.1746 80° East  Level FlightAware Approximate
02:59AM 53.6157 -34.9455 80° East  Level FlightAware Approximate
03:00AM 53.6382 -34.7162 81° East  Level FlightAware Approximate
03:01AM 53.6603 -34.4866 81° East  Level FlightAware Approximate
03:02AM 53.6819 -34.2568 81° East  Level FlightAware Approximate
03:03AM 53.7031 -34.0268 81° East  Level FlightAware Approximate
03:04AM 53.7238 -33.7965 81° East  Level FlightAware Approximate
03:05AM 53.7441 -33.5660 81° East  Level FlightAware Approximate
03:06AM 53.7640 -33.3353 82° East  Level FlightAware Approximate
03:07AM 53.7834 -33.1044 82° East  Level FlightAware Approximate
03:08AM 53.8024 -32.8732 82° East  Level FlightAware Approximate
03:09AM 53.8209 -32.6419 82° East  Level FlightAware Approximate
03:10AM 53.8390 -32.4103 82° East  Level FlightAware Approximate
03:11AM 53.8566 -32.1786 83° East  Level FlightAware Approximate
03:12AM 53.8738 -31.9466 83° East  Level FlightAware Approximate
03:13AM 53.8906 -31.7145 83° East  Level FlightAware Approximate
03:14AM 53.9068 -31.4822 83° East  Level FlightAware Approximate
03:15AM 53.9227 -31.2497 83° East  Level FlightAware Approximate
03:16AM 53.9381 -31.0170 83° East  Level FlightAware Approximate
03:17AM 53.9530 -30.7842 84° East  Level FlightAware Approximate
03:18AM 53.9675 -30.5512 84° East  Level FlightAware Approximate
03:19AM 53.9816 -30.3180 84° East  Level FlightAware Approximate
03:20AM 53.9952 -30.0847 84° East  Level FlightAware Approximate
03:21AM 53.9908 -29.8514 96° East  Level FlightAware Approximate
03:22AM 53.9761 -29.6183 96° East  Level FlightAware Approximate
03:23AM 53.9609 -29.3854 96° East  Level FlightAware Approximate
03:24AM 53.9452 -29.1527 96° East  Level FlightAware Approximate
03:25AM 53.9291 -28.9201 97° East  Level FlightAware Approximate
03:26AM 53.9126 -28.6877 97° East  Level FlightAware Approximate
03:27AM 53.8956 -28.4555 97° East  Level FlightAware Approximate
03:28AM 53.8782 -28.2235 97° East  Level FlightAware Approximate
03:29AM 53.8603 -27.9917 97° East  Level FlightAware Approximate
03:30AM 53.8419 -27.7601 98° East  Level FlightAware Approximate
03:31AM 53.8232 -27.5287 98° East  Level FlightAware Approximate
03:32AM 53.8051 -27.2972 97° East  Level FlightAware Approximate
03:33AM 53.7871 -27.0658 97° East  Level FlightAware Approximate
03:34AM 53.7687 -26.8346 98° East  Level FlightAware Approximate
03:35AM 53.7499 -26.6036 98° East  Level FlightAware Approximate
03:36AM 53.7307 -26.3728 98° East  Level FlightAware Approximate
03:37AM 53.7109 -26.1423 98° East  Level FlightAware Approximate
03:38AM 53.6908 -25.9119 98° East  Level FlightAware Approximate
03:39AM 53.6702 -25.6818 99° East  Level FlightAware Approximate
03:40AM 53.6491 -25.4519 99° East  Level FlightAware Approximate
03:41AM 53.6277 -25.2222 99° East  Level FlightAware Approximate
03:42AM 53.6058 -24.9928 99° East  Level FlightAware Approximate
03:43AM 53.5824 -24.7638 100° East  Level FlightAware Approximate
03:44AM 53.5583 -24.5353 100° East  Level FlightAware Approximate
03:45AM 53.5337 -24.3070 100° East  Level FlightAware Approximate
03:46AM 53.5088 -24.0790 100° East  Level FlightAware Approximate
03:47AM 53.4833 -23.8512 101° East  Level FlightAware Approximate
03:48AM 53.4575 -23.6238 101° East  Level FlightAware Approximate
03:49AM 53.4312 -23.3966 101° East  Level FlightAware Approximate
03:50AM 53.4045 -23.1696 101° East  Level FlightAware Approximate
03:51AM 53.3773 -22.9430 101° East  Level FlightAware Approximate
03:52AM 53.3498 -22.7167 101° East  Level FlightAware Approximate
03:53AM 53.3218 -22.4906 102° East  Level FlightAware Approximate
03:54AM 53.2946 -22.2644 101° East  Level FlightAware Approximate
03:55AM 53.2673 -22.0385 101° East  Level FlightAware Approximate
03:56AM 53.2396 -21.8127 102° East  Level FlightAware Approximate
03:57AM 53.2114 -21.5873 102° East  Level FlightAware Approximate
03:58AM 53.1828 -21.3622 102° East  Level FlightAware Approximate
03:59AM 53.1538 -21.1374 102° East  Level FlightAware Approximate
04:00AM 53.1244 -20.9129 102° East  Level FlightAware Approximate
04:01AM 53.0946 -20.6887 102° East  Level FlightAware Approximate
04:02AM 53.0643 -20.4648 103° East  Level FlightAware Approximate
04:03AM 53.0336 -20.2413 103° East  Level FlightAware Approximate
04:04AM 53.0025 -20.0180 103° East  Level FlightAware Approximate
04:05AM 52.9993 -19.7895 90° East  Level FlightAware Approximate
04:06AM 52.9982 -19.5604 90° East  Level FlightAware Approximate
04:07AM 52.9966 -19.3314 91° East  Level FlightAware Approximate
04:08AM 52.9945 -19.1024 91° East  Level FlightAware Approximate
04:09AM 52.9921 -18.8734 91° East  Level FlightAware Approximate
04:10AM 52.9892 -18.6444 91° East  Level FlightAware Approximate
04:11AM 52.9858 -18.4155 91° East  Level FlightAware Approximate
04:12AM 52.9820 -18.1866 91° East  Level FlightAware Approximate
04:13AM 52.9778 -17.9578 92° East  Level FlightAware Approximate
04:14AM 52.9731 -17.7290 92° East  Level FlightAware Approximate
04:15AM 52.9680 -17.5002 92° East  Level FlightAware Approximate
04:16AM 52.9625 -17.2716 92° East  Level FlightAware Approximate
04:17AM 52.9565 -17.0429 92° East  Level FlightAware Approximate
04:17AM 52.9720 -14.3220 93° East 501 577 39,000  Level FlightAware
04:18AM 52.9500 -16.8144 93° East  Level FlightAware Approximate
04:18AM 52.9590 -14.1350 97° East 501 577 39,000  Level FlightAware
04:19AM 52.9460 -13.9520 97° East 501 577 39,000  Level FlightAware
04:21AM 52.9106 -13.5600 98° East  Level FlightAware Approximate
04:21AM 52.9190 -13.5440 98° East 499 574 39,000  Level FlightAware
04:21AM 52.9050 -13.3670 97° East 499 574 39,000  Level FlightAware
04:22AM 52.8940 -13.2160 97° East 498 573 39,000  Level FlightAware
04:23AM 52.8770 -12.9810 97° East 497 572 39,000  Level FlightAware
04:24AM 52.8660 -12.8410 97° East 497 572 39,000  Level FlightAware
04:24AM 52.8540 -12.6830 97° East 499 574 39,000  Level FlightAware
04:25AM 52.8430 -12.5430 97° East 498 573 39,000  Level FlightAware
04:26AM 52.8310 -12.3930 97° East 497 572 39,000  Level FlightAware
04:26AM 52.8170 -12.2240 98° East 496 571 39,000  Level FlightAware
04:27AM 52.8040 -12.0700 98° East 497 572 39,000  Level FlightAware
04:28AM 52.7910 -11.9200 98° East 498 573 39,000 -300 Level FlightAware
04:28AM 52.7780 -11.7660 98° East 494 568 38,600 -840 Descending FlightAware
04:29AM 52.7650 -11.6200 98° East 494 568 37,900 -900 Descending FlightAware
04:30AM 52.7520 -11.4720 98° East 489 563 37,400 -900 Descending FlightAware
04:30AM 52.7410 -11.3390 98° East 489 563 36,800 -1,020 Descending FlightAware
04:31AM 52.7270 -11.1840 98° East 488 562 36,100 -840 Descending FlightAware
04:32AM 52.7130 -11.0340 99° East 483 556 35,700 -600 Descending FlightAware
04:32AM 52.6990 -10.8920 99° East 479 551 35,300 -720 Descending FlightAware
04:33AM 52.6850 -10.7450 99° East 478 550 34,800 -1,200 Descending FlightAware
04:34AM 52.6720 -10.6010 98° East 472 543 33,700 -1,260 Descending FlightAware
04:34AM 52.6560 -10.4410 99° East 472 543 33,000 -540 Descending FlightAware
04:35AM 52.6410 -10.2920 99° East 471 542 33,000  Level FlightAware
04:36AM 52.6260 -10.1330 99° East 471 542 33,000  Level FlightAware
04:36AM 52.6130 -10.0090 100° East 470 541 33,000  Level FlightAware
04:37AM 52.5980 -9.8610 99° East 469 540 33,000  Level FlightAware
04:38AM 52.5850 -9.7410 100° East 470 541 33,000  Level FlightAware
04:39AM 52.5690 -9.5830 99° East 471 542 33,000  Level FlightAware
04:39AM 52.5500 -9.4120 100° East 483 556 33,000  Level FlightAware
04:40AM 52.5350 -9.2630 99° East 488 562 33,000  Level FlightAware
04:41AM 52.5190 -9.1170 100° East 488 562 33,000  Level FlightAware
04:41AM 52.5029 -8.9794 100° East 482 555 33,000  Level FlightAware UK
04:41AM 52.5040 -8.9850 100° East 489 563 33,000  Level FlightAware
04:42AM 52.4840 -8.8100 101° East 488 562 33,000  Level FlightAware
04:43AM 52.4665 -8.6509 101° East 480 552 33,000  Level FlightAware UK
04:43AM 52.4660 -8.6430 101° East 489 563 33,000  Level FlightAware
04:44AM 52.4480 -8.4900 101° East 488 562 33,000  Level FlightAware
04:44AM 52.4320 -8.3560 101° East 486 559 33,000  Level FlightAware
04:45AM 52.4157 -8.2146 101° East 478 550 33,000  Level FlightAware UK
04:45AM 52.4029 -8.1061 101° East 478 550 33,000  Level FlightAware UK
04:45AM 52.4030 -8.1100 101° East 486 559 33,000  Level FlightAware
04:46AM 52.3900 -7.9978 101° East 476 548 33,000  Level FlightAware UK
04:46AM 52.3860 -7.9620 101° East 487 560 33,000  Level FlightAware
04:47AM 52.3670 -7.8070 101° East 487 560 33,000  Level FlightAware
04:47AM 52.3506 -7.6743 101° East 476 548 33,000  Level FlightAware UK
04:47AM 52.3470 -7.6490 101° East 487 560 33,000  Level FlightAware
04:48AM 52.3300 -7.5110 101° East 487 560 33,000  Level FlightAware
04:49AM 52.3104 -7.3491 101° East 478 550 33,000  Level FlightAware UK
04:49AM 52.3100 -7.3460 101° East 487 560 33,000  Level FlightAware
04:49AM 52.2939 -7.2195 101° East 480 552 33,000  Level FlightAware UK
04:49AM 52.2920 -7.2020 101° East 487 560 33,000  Level FlightAware
04:50AM 52.2720 -7.0470 102° East 486 559 33,000  Level FlightAware
04:51AM 52.2530 -6.9010 102° East 486 559 33,000  Level FlightAware
04:51AM 52.2526 -6.8957 102° East 478 550 33,000  Level FlightAware UK
04:51AM 52.2385 -6.7884 102° East 478 550 33,000  Level FlightAware UK
04:52AM 52.2330 -6.7500 102° East 485 558 33,000  Level FlightAware
04:52AM 52.2140 -6.6040 102° East 484 557 33,000  Level FlightAware
04:53AM 52.1960 -6.4672 102° East 474 545 33,000  Level FlightAware UK
04:53AM 52.1970 -6.4760 102° East 485 558 33,000  Level FlightAware
04:54AM 52.1720 -6.2930 102° East 488 562 33,000  Level FlightAware
04:54AM 52.1520 -6.1500 102° East 493 567 33,000  Level FlightAware
04:54AM 52.1522 -6.1454 102° East 484 557 33,000  Level FlightAware UK
04:55AM 52.1316 -6.0380 102° East 488 562 33,000  Level FlightAware UK
04:55AM 52.1230 -5.9920 102° East 496 571 33,000  Level FlightAware
04:56AM 52.0970 -5.8490 106° East 498 573 33,000  Level FlightAware
04:56AM 52.0720 -5.7050 106° East 498 573 33,000  Level FlightAware
04:56AM 52.0700 -5.6928 106° East 490 564 33,000  Level FlightAware UK
04:57AM 52.0431 -5.5905 106° East 492 566 33,000  Level FlightAware UK
04:57AM 52.0290 -5.5460 106° East 493 567 33,000  Level FlightAware
04:58AM 51.9890 -5.4210 117° Southeast 492 566 33,000  Level FlightAware
04:59AM 51.9414 -5.2772 117° Southeast 490 564 33,000  Level FlightAware UK
04:59AM 51.9410 -5.2790 117° Southeast 489 563 33,000  Level FlightAware
04:59AM 51.8890 -5.1460 122° Southeast 489 563 33,000  Level FlightAware
04:59AM 51.8750 -5.1130 124° Southeast 489 563 33,000  Level FlightAware
05:00AM 51.8241 -4.9820 124° Southeast 490 564 33,000  Level FlightAware UK
05:01AM 51.7872 -4.8894 123° Southeast 492 566 33,000  Level FlightAware UK
05:01AM 51.7640 -4.8330 123° Southeast 488 562 33,000  Level FlightAware
05:02AM 51.7190 -4.6754 123° Southeast 488 562 33,000  Level FlightAware UK
05:02AM 51.7160 -4.6640 123° Southeast 493 567 33,000  Level FlightAware
05:02AM 51.6940 -4.5250 104° East 496 571 33,000  Level FlightAware
05:03AM 51.6719 -4.3752 104° East 490 564 33,000  Level FlightAware UK
05:03AM 51.6710 -4.3700 104° East 497 572 33,000  Level FlightAware
05:04AM 51.6510 -4.2300 104° East 496 571 33,000  Level FlightAware
05:04AM 51.6500 -4.2240 104° East 490 564 33,000  Level FlightAware UK
05:04AM 51.6345 -4.1154 104° East 490 564 33,000  Level FlightAware UK
05:04AM 51.6320 -4.1000 104° East 496 571 33,000  Level FlightAware
05:05AM 51.6161 -3.9860 104° East 488 562 33,000 -300 Level FlightAware UK
05:05AM 51.6090 -3.9350 104° East 494 568 32,800 -1,200 Descending FlightAware
05:06AM 51.5910 -3.8070 103° East 489 563 32,000 -1,320 Descending FlightAware
05:07AM 51.5680 -3.6380 102° East 482 555 31,000 -1,260 Descending FlightAware
05:07AM 51.5480 -3.4990 103° East 477 549 30,200 -720 Descending FlightAware
05:08AM 51.5270 -3.3530 103° East 444 511 30,000 -180 Descending FlightAware
05:09AM 51.5090 -3.2330 104° East 435 501 30,000  Level FlightAware
05:09AM 51.5007 -3.1759 103° East 437 503 30,000 -420 Level FlightAware ADS-B
05:09AM 51.4865 -3.0792 103° East 432 497 29,700 -780 Descending FlightAware ADS-B
05:10AM 51.4721 -2.9832 103° East 428 493 29,200 -1,380 Descending FlightAware ADS-B
05:11AM 51.4563 -2.8760 103° East 423 487 28,200 -1,920 Descending FlightAware ADS-B
05:11AM 51.4425 -2.7822 103° East 417 480 27,100 -2,040 Descending FlightAware ADS-B
05:12AM 51.4279 -2.6867 104° East 413 475 26,100 -1,980 Descending FlightAware ADS-B
05:12AM 51.4182 -2.6156 102° East 411 473 25,300 -1,980 Descending FlightAware ADS-B
05:13AM 51.4135 -2.5224 95° East 406 467 24,300 -1,920 Descending FlightAware ADS-B
05:13AM 51.4093 -2.4269 94° East 401 461 23,300 -1,920 Descending FlightAware ADS-B
05:14AM 51.4035 -2.3009 94° East 394 453 21,900 -1,920 Descending FlightAware ADS-B
05:14AM 51.3983 -2.2031 95° East 389 448 20,900 -1,860 Descending FlightAware ADS-B
05:15AM 51.3936 -2.1233 95° East 385 443 20,000 -1,920 Descending FlightAware ADS-B
05:15AM 51.3884 -2.0390 96° East 380 437 19,100 -1,800 Descending FlightAware ADS-B
05:16AM 51.3844 -1.9806 96° East 376 433 18,500 -1,740 Descending FlightAware ADS-B
05:16AM 51.3742 -1.8967 101° East 370 426 17,600 -1,740 Descending FlightAware ADS-B
05:17AM 51.3629 -1.8089 102° East 367 422 16,700 -1,740 Descending FlightAware ADS-B
05:17AM 51.3513 -1.7197 102° East 361 415 15,700 -1,800 Descending FlightAware ADS-B
05:18AM 51.3409 -1.6418 102° East 357 411 14,800 -1,680 Descending FlightAware ADS-B
05:18AM 51.3300 -1.5627 102° East 351 404 14,000 -780 Descending FlightAware ADS-B
05:19AM 51.3195 -1.4834 102° East 332 382 14,000 -120 Level FlightAware ADS-B
05:19AM 51.3102 -1.4147 102° East 306 352 13,900 -300 Descending FlightAware ADS-B
05:20AM 51.3073 -1.3908 101° East 298 343 13,800 -600 Descending FlightAware ADS-B
05:20AM 51.3047 -1.3437 95° East 284 327 13,600 -540 Descending FlightAware ADS-B
05:20AM 51.3045 -1.2919 90° East 278 320 13,400 -660 Descending FlightAware ADS-B
05:21AM 51.3045 -1.2304 90° East 275 316 13,000 -420 Descending FlightAware ADS-B
05:21AM 51.3047 -1.1691 90° East 278 320 13,000  Level FlightAware ADS-B
05:22AM 51.3050 -1.1039 90° East 276 318 13,000  Level FlightAware ADS-B
05:22AM 51.3052 -1.0429 90° East 275 316 13,000  Level FlightAware ADS-B
05:23AM 51.3053 -0.9816 90° East 277 319 13,000 -240 Level FlightAware ADS-B
05:23AM 51.3054 -0.9182 90° East 277 319 12,800 -600 Descending FlightAware ADS-B
05:24AM 51.3054 -0.8552 90° East 274 315 12,400 -960 Descending FlightAware ADS-B
05:24AM 51.3055 -0.8027 90° East 271 312 11,900 -1,080 Descending FlightAware ADS-B
05:25AM 51.3055 -0.7432 90° East 268 308 11,400 -900 Descending FlightAware ADS-B
05:25AM 51.3054 -0.6822 90° East 265 305 11,000 -600 Descending FlightAware ADS-B
05:26AM 51.3055 -0.6232 90° East 265 305 10,800 -420 Descending FlightAware ADS-B
05:26AM 51.3055 -0.5630 90° East 263 303 10,600 -540 Descending FlightAware ADS-B
05:27AM 51.3054 -0.5049 90° East 261 300 10,300 -540 Descending FlightAware ADS-B
05:27AM 51.3051 -0.4451 90° East 261 300 10,100 -480 Descending FlightAware ADS-B
05:28AM 51.3047 -0.4279 92° East 261 300 10,000 -480 Descending FlightAware ADS-B
05:28AM 51.3035 -0.4182 101° East 263 303 10,000  Level FlightAware ADS-B
05:28AM 51.3013 -0.4092 111° Southeast 265 305 10,000  Level FlightAware ADS-B
05:28AM 51.2948 -0.3884 117° Southeast 265 305 10,000  Level FlightAware ADS-B
05:28AM 51.2905 -0.3742 116° Southeast 265 305 10,000  Level FlightAware ADS-B
05:29AM 51.2769 -0.3199 112° Southeast 263 303 10,000  Level FlightAware ADS-B
05:29AM 51.2606 -0.2723 119° Southeast 266 306 10,000  Level FlightAware ADS-B
05:29AM 51.2513 -0.2628 147° Southeast 268 308 10,000  Level FlightAware ADS-B
05:29AM 51.2414 -0.2576 162° South 269 310 10,000  Level FlightAware ADS-B
05:29AM 51.2331 -0.2555 171° South 269 310 10,000  Level FlightAware ADS-B
05:30AM 51.2145 -0.2611 191° South 268 308 10,000 -300 Level FlightAware ADS-B
05:30AM 51.2097 -0.2646 204° Southwest 269 310 9,900 -600 Descending FlightAware ADS-B
05:30AM 51.2038 -0.2715 216° Southwest 267 307 9,900  Level FlightAware ADS-B
05:30AM 51.2009 -0.2753 220° Southwest 266 306 9,900 -780 Level FlightAware ADS-B
05:30AM 51.1968 -0.2828 229° Southwest 264 304 9,800 -600 Descending FlightAware ADS-B
05:30AM 51.1930 -0.2927 238° Southwest 263 303 9,800 -720 Level FlightAware ADS-B
05:30AM 51.1916 -0.2997 252° West 262 302 9,700 -720 Descending FlightAware ADS-B
05:30AM 51.1897 -0.3089 252° West 260 299 9,700 -600 Level FlightAware ADS-B
05:30AM 51.1890 -0.3186 263° West 260 299 9,600 -780 Descending FlightAware ADS-B
05:30AM 51.1889 -0.3260 269° West 260 299 9,600 -780 Level FlightAware ADS-B
05:30AM 51.1894 -0.3356 275° West 259 298 9,500 -1,020 Descending FlightAware ADS-B
05:31AM 51.1914 -0.3468 286° West 258 297 9,400 -600 Descending FlightAware ADS-B
05:31AM 51.1928 -0.3519 293° West 258 297 9,400 -540 Level FlightAware ADS-B
05:31AM 51.1983 -0.3665 301° West 255 293 9,300 -840 Descending FlightAware ADS-B
05:31AM 51.2026 -0.3748 310° West 253 291 9,200 -900 Descending FlightAware ADS-B
05:31AM 51.2107 -0.3839 325° Northwest 252 290 9,100 -540 Descending FlightAware ADS-B
05:31AM 51.2147 -0.3874 331° Northwest 252 290 9,100 -600 Level FlightAware ADS-B
05:31AM 51.2207 -0.3918 335° Northwest 253 291 9,000 -720 Descending FlightAware ADS-B
05:31AM 51.2340 -0.4003 338° Northwest 253 291 8,900 -660 Descending FlightAware ADS-B
05:32AM 51.2516 -0.4115 338° Northwest 253 291 8,700 -900 Descending FlightAware ADS-B
05:32AM 51.2572 -0.4147 340° North 252 290 8,600 -720 Descending FlightAware ADS-B
05:32AM 51.2617 -0.4170 342° North 253 291 8,600 -780 Level FlightAware ADS-B
05:32AM 51.2658 -0.4186 347° North 252 290 8,500 -720 Descending FlightAware ADS-B
05:32AM 51.2714 -0.4192 356° North 252 290 8,500  Level FlightAware ADS-B
05:32AM 51.2756 -0.4189 North 253 291 8,500 -720 Level FlightAware ADS-B
05:32AM 51.2818 -0.4164 14° North 253 291 8,400 -600 Descending FlightAware ADS-B
05:32AM 51.2860 -0.4135 23° Northeast 253 291 8,400  Level FlightAware ADS-B
05:32AM 51.2903 -0.4098 29° Northeast 254 292 8,400 -780 Level FlightAware ADS-B
05:32AM 51.2939 -0.4052 39° Northeast 254 292 8,300 -780 Descending FlightAware ADS-B
05:32AM 51.2973 -0.4000 44° Northeast 255 293 8,300  Level FlightAware ADS-B
05:32AM 51.3009 -0.3945 43° Northeast 253 291 8,300 -600 Level FlightAware ADS-B
05:33AM 51.3126 -0.3720 50° Northeast 252 290 8,100 -780 Descending FlightAware ADS-B
05:33AM 51.3248 -0.3510 47° Northeast 252 290 7,900 -600 Descending FlightAware ADS-B
05:33AM 51.3369 -0.3286 49° Northeast 252 290 7,800 -600 Descending FlightAware ADS-B
05:33AM 51.3492 -0.3065 48° Northeast 251 289 7,600 -840 Descending FlightAware ADS-B
05:34AM 51.3540 -0.2959 54° Northeast 251 289 7,500 -840 Descending FlightAware ADS-B
05:34AM 51.3582 -0.2825 63° Northeast 251 289 7,400 -900 Descending FlightAware ADS-B
05:34AM 51.3606 -0.2724 69° East 251 289 7,300 -1,200 Descending FlightAware ADS-B
05:34AM 51.3670 -0.2464 68° East 251 289 7,000 -1,380 Descending FlightAware ADS-B
05:34AM 51.3738 -0.2187 69° East 255 293 6,600 -1,560 Descending FlightAware ADS-B
05:35AM 51.3808 -0.1923 67° East 259 298 6,200 -1,560 Descending FlightAware ADS-B
05:35AM 51.3862 -0.1709 68° East 261 300 5,900 -1,500 Descending FlightAware ADS-B
05:35AM 51.3905 -0.1568 64° Northeast 262 302 5,700 -1,440 Descending FlightAware ADS-B
05:35AM 51.3940 -0.1473 59° Northeast 261 300 5,600 -1,500 Descending FlightAware ADS-B
05:35AM 51.3965 -0.1431 47° Northeast 261 300 5,500 -1,500 Descending FlightAware ADS-B
05:35AM 51.4009 -0.1380 36° Northeast 259 298 5,400 -1,500 Descending FlightAware ADS-B
05:35AM 51.4040 -0.1349 32° Northeast 256 295 5,300 -2,280 Descending FlightAware ADS-B
05:35AM 51.4095 -0.1306 26° Northeast 254 292 5,100 -1,500 Descending FlightAware ADS-B
05:35AM 51.4169 -0.1275 15° North 252 290 5,000 -1,680 Descending FlightAware ADS-B
05:35AM 51.4213 -0.1266 North 250 288 4,800 -2,580 Descending FlightAware ADS-B
05:35AM 51.4249 -0.1265 North 250 288 4,700 -1,320 Descending FlightAware ADS-B
05:36AM 51.4434 -0.1275 358° North 244 281 4,400 -780 Descending FlightAware ADS-B
05:36AM 51.4601 -0.1286 358° North 228 262 4,300 -600 Descending FlightAware ADS-B
05:36AM 51.4657 -0.1298 353° North 219 252 4,200 -1,020 Descending FlightAware ADS-B
05:36AM 51.4712 -0.1327 342° North 214 246 4,100 -720 Descending FlightAware ADS-B
05:36AM 51.4738 -0.1348 333° Northwest 211 243 4,100 -1,500 Level FlightAware ADS-B
05:36AM 51.4777 -0.1395 323° Northwest 210 242 3,900 -2,220 Descending FlightAware ADS-B
05:36AM 51.4817 -0.1465 313° West 210 242 3,700 -1,620 Descending FlightAware ADS-B
05:37AM 51.4852 -0.1588 294° West 210 242 3,500 -1,740 Descending FlightAware ADS-B
05:37AM 51.4861 -0.1664 281° West 210 242 3,300 -2,280 Descending FlightAware ADS-B
05:37AM 51.4859 -0.1711 266° West 210 242 3,200 -2,160 Descending FlightAware ADS-B
05:37AM 51.4816 -0.1881 248° West 211 243 2,800 -1,380 Descending FlightAware ADS-B
05:37AM 51.4758 -0.2207 254° West 203 234 2,400 -1,020 Descending FlightAware ADS-B
05:38AM 51.4780 -0.2780 274° West 166 191 1,700 -960 Descending FlightAware
05:39AM 51.4780 -0.3140 270° West 147 169 1,200 -900 Descending FlightAware
05:39AM 51.4780 -0.3480 270° West 149 171 800 -780 Descending FlightAware
05:40AM 51.4780 -0.3880 270° West 148 170 400 -720 Descending FlightAware
05:40AM 51.4780 -0.4310 270° West 149 171 -660 Descending FlightAware
05:41AM 51.4780 -0.4580 270° West 74 85  Level FlightAware
05:41AM 51.4780 -0.4690 270° West 74 85  Level FlightAware
05:41AM 51.4770 -0.4680 148° Southeast 31 36  Level FlightAware
05:42AM 51.4740 -0.4690 192° South 28 32  Level FlightAware
05:44AM 51.4700 -0.4670 163° South 20 23  Level FlightAware
05:44AM 51.4700 -0.4660 90° East 12 14  Level FlightAware
05:45AM 51.4700 -0.4650 90° East 2 2  Level FlightAware